sensor_id;sensor_type;location;lat;lon;timestamp;temperature;humidity
14061;DHT22;7105;43.616;1.434;2022-09-09T00:03:55;20.10;99.90
14061;DHT22;7105;43.616;1.434;2022-09-09T00:06:32;20.10;99.90
14061;DHT22;7105;43.616;1.434;2022-09-09T00:09:02;20.10;99.90
14061;DHT22;7105;43.616;1.434;2022-09-09T00:11:41;20.20;99.90
14061;DHT22;7105;43.616;1.434;2022-09-09T00:14:23;20.50;99.90
14061;DHT22;7105;43.616;1.434;2022-09-09T00:16:56;20.30;99.90
14061;DHT22;7105;43.616;1.434;2022-09-09T00:19:44;20.30;99.90
14061;DHT22;7105;43.616;1.434;2022-09-09T00:22:23;20.10;99.90
14061;DHT22;7105;43.616;1.434;2022-09-09T00:24:54;20.20;99.90
14061;DHT22;7105;43.616;1.434;2022-09-09T00:27:52;20.20;99.90
14061;DHT22;7105;43.616;1.434;2022-09-09T00:30:22;20.20;99.90
14061;DHT22;7105;43.616;1.434;2022-09-09T00:32:53;20.10;99.90
14061;DHT22;7105;43.616;1.434;2022-09-09T00:35:28;20.20;99.90
14061;DHT22;7105;43.616;1.434;2022-09-09T00:37:58;20.20;99.90
14061;DHT22;7105;43.616;1.434;2022-09-09T00:40:45;20.20;99.90
14061;DHT22;7105;43.616;1.434;2022-09-09T00:43:29;20.30;99.90
14061;DHT22;7105;43.616;1.434;2022-09-09T00:46:14;20.10;99.90
14061;DHT22;7105;43.616;1.434;2022-09-09T00:56:47;20.40;99.90
14061;DHT22;7105;43.616;1.434;2022-09-09T01:02:36;20.50;99.90
14061;DHT22;7105;43.616;1.434;2022-09-09T01:05:33;20.30;99.90
14061;DHT22;7105;43.616;1.434;2022-09-09T01:08:02;20.10;99.90
14061;DHT22;7105;43.616;1.434;2022-09-09T01:10:50;20.10;99.90
14061;DHT22;7105;43.616;1.434;2022-09-09T01:13:25;20.10;99.90
14061;DHT22;7105;43.616;1.434;2022-09-09T01:15:51;20.20;99.90
14061;DHT22;7105;43.616;1.434;2022-09-09T01:18:21;20.20;99.90
14061;DHT22;7105;43.616;1.434;2022-09-09T01:21:05;20.10;99.90
14061;DHT22;7105;43.616;1.434;2022-09-09T01:28:52;20.10;99.90
14061;DHT22;7105;43.616;1.434;2022-09-09T01:31:22;20.00;99.90
14061;DHT22;7105;43.616;1.434;2022-09-09T01:33:48;20.00;99.90
14061;DHT22;7105;43.616;1.434;2022-09-09T01:38:43;19.90;99.90
14061;DHT22;7105;43.616;1.434;2022-09-09T01:41:08;19.90;99.90
14061;DHT22;7105;43.616;1.434;2022-09-09T01:43:34;19.90;99.90
14061;DHT22;7105;43.616;1.434;2022-09-09T01:46:01;19.80;99.90
14061;DHT22;7105;43.616;1.434;2022-09-09T01:48:28;19.90;99.90
14061;DHT22;7105;43.616;1.434;2022-09-09T01:50:53;19.80;99.90
14061;DHT22;7105;43.616;1.434;2022-09-09T01:53:20;19.90;99.90
14061;DHT22;7105;43.616;1.434;2022-09-09T01:56:22;19.90;99.90
14061;DHT22;7105;43.616;1.434;2022-09-09T02:02:11;19.80;99.90
14061;DHT22;7105;43.616;1.434;2022-09-09T02:04:48;19.60;99.90
14061;DHT22;7105;43.616;1.434;2022-09-09T02:09:51;19.70;99.90
14061;DHT22;7105;43.616;1.434;2022-09-09T02:12:21;19.70;99.90
14061;DHT22;7105;43.616;1.434;2022-09-09T02:14:55;19.70;99.90
14061;DHT22;7105;43.616;1.434;2022-09-09T02:17:28;19.60;99.90
14061;DHT22;7105;43.616;1.434;2022-09-09T02:20:08;19.70;99.90
14061;DHT22;7105;43.616;1.434;2022-09-09T02:22:35;19.70;99.90
14061;DHT22;7105;43.616;1.434;2022-09-09T02:25:06;19.60;99.90
14061;DHT22;7105;43.616;1.434;2022-09-09T02:27:33;19.70;99.90
14061;DHT22;7105;43.616;1.434;2022-09-09T02:30:01;19.80;99.90
14061;DHT22;7105;43.616;1.434;2022-09-09T02:32:29;19.90;99.90
14061;DHT22;7105;43.616;1.434;2022-09-09T02:35:02;19.80;99.90
14061;DHT22;7105;43.616;1.434;2022-09-09T02:37:37;19.90;99.90
14061;DHT22;7105;43.616;1.434;2022-09-09T02:40:04;19.80;99.90
14061;DHT22;7105;43.616;1.434;2022-09-09T02:42:30;19.70;99.90
14061;DHT22;7105;43.616;1.434;2022-09-09T02:44:56;19.60;99.90
14061;DHT22;7105;43.616;1.434;2022-09-09T02:47:35;19.50;99.90
14061;DHT22;7105;43.616;1.434;2022-09-09T02:50:17;19.50;99.90
14061;DHT22;7105;43.616;1.434;2022-09-09T02:55:43;19.50;99.90
14061;DHT22;7105;43.616;1.434;2022-09-09T02:58:13;19.50;99.90
14061;DHT22;7105;43.616;1.434;2022-09-09T03:00:43;19.50;99.90
14061;DHT22;7105;43.616;1.434;2022-09-09T03:03:09;19.40;99.90
14061;DHT22;7105;43.616;1.434;2022-09-09T03:05:35;19.50;99.90
14061;DHT22;7105;43.616;1.434;2022-09-09T03:08:03;19.50;99.90
14061;DHT22;7105;43.616;1.434;2022-09-09T03:10:28;19.50;99.90
14061;DHT22;7105;43.616;1.434;2022-09-09T03:12:54;19.60;99.90
14061;DHT22;7105;43.616;1.434;2022-09-09T03:15:21;19.70;99.90
14061;DHT22;7105;43.616;1.434;2022-09-09T03:17:46;19.70;99.90
14061;DHT22;7105;43.616;1.434;2022-09-09T03:20:12;19.60;99.90
14061;DHT22;7105;43.616;1.434;2022-09-09T03:22:38;19.80;99.90
14061;DHT22;7105;43.616;1.434;2022-09-09T03:25:04;19.80;99.90
14061;DHT22;7105;43.616;1.434;2022-09-09T03:27:31;19.70;99.90
14061;DHT22;7105;43.616;1.434;2022-09-09T03:29:57;19.60;99.90
14061;DHT22;7105;43.616;1.434;2022-09-09T03:32:23;19.70;99.90
14061;DHT22;7105;43.616;1.434;2022-09-09T03:34:51;19.60;99.90
14061;DHT22;7105;43.616;1.434;2022-09-09T03:37:18;19.70;99.90
14061;DHT22;7105;43.616;1.434;2022-09-09T03:39:44;19.70;99.90
14061;DHT22;7105;43.616;1.434;2022-09-09T03:42:12;19.70;99.90
14061;DHT22;7105;43.616;1.434;2022-09-09T03:44:40;19.70;99.90
14061;DHT22;7105;43.616;1.434;2022-09-09T03:47:07;19.60;99.90
14061;DHT22;7105;43.616;1.434;2022-09-09T03:49:33;19.60;99.90
14061;DHT22;7105;43.616;1.434;2022-09-09T03:51:58;19.60;99.90
14061;DHT22;7105;43.616;1.434;2022-09-09T03:54:27;19.50;99.90
14061;DHT22;7105;43.616;1.434;2022-09-09T03:56:53;19.40;99.90
14061;DHT22;7105;43.616;1.434;2022-09-09T03:59:19;19.30;99.90
14061;DHT22;7105;43.616;1.434;2022-09-09T04:01:46;19.40;99.90
14061;DHT22;7105;43.616;1.434;2022-09-09T04:04:13;19.30;99.90
14061;DHT22;7105;43.616;1.434;2022-09-09T04:06:38;19.30;99.90
14061;DHT22;7105;43.616;1.434;2022-09-09T04:09:04;19.30;99.90
14061;DHT22;7105;43.616;1.434;2022-09-09T04:11:30;19.30;99.90
14061;DHT22;7105;43.616;1.434;2022-09-09T04:13:56;19.20;99.90
14061;DHT22;7105;43.616;1.434;2022-09-09T04:16:21;19.20;99.90
14061;DHT22;7105;43.616;1.434;2022-09-09T04:18:47;19.20;99.90
14061;DHT22;7105;43.616;1.434;2022-09-09T04:21:14;19.20;99.90
14061;DHT22;7105;43.616;1.434;2022-09-09T04:23:40;19.30;99.90
14061;DHT22;7105;43.616;1.434;2022-09-09T04:26:06;19.20;99.90
14061;DHT22;7105;43.616;1.434;2022-09-09T04:28:34;19.20;99.90
14061;DHT22;7105;43.616;1.434;2022-09-09T04:31:20;19.00;99.90
14061;DHT22;7105;43.616;1.434;2022-09-09T04:33:51;19.00;99.90
14061;DHT22;7105;43.616;1.434;2022-09-09T04:36:18;19.00;99.90
14061;DHT22;7105;43.616;1.434;2022-09-09T04:38:45;19.00;99.90
14061;DHT22;7105;43.616;1.434;2022-09-09T04:41:11;19.00;99.90
14061;DHT22;7105;43.616;1.434;2022-09-09T04:43:38;19.00;99.90
14061;DHT22;7105;43.616;1.434;2022-09-09T04:46:04;18.90;99.90
14061;DHT22;7105;43.616;1.434;2022-09-09T04:48:31;18.80;99.90
14061;DHT22;7105;43.616;1.434;2022-09-09T04:51:08;18.80;99.90
14061;DHT22;7105;43.616;1.434;2022-09-09T04:53:34;18.90;99.90
14061;DHT22;7105;43.616;1.434;2022-09-09T04:56:08;18.70;99.90
14061;DHT22;7105;43.616;1.434;2022-09-09T04:58:36;18.80;99.90
14061;DHT22;7105;43.616;1.434;2022-09-09T05:01:10;18.80;99.90
14061;DHT22;7105;43.616;1.434;2022-09-09T05:03:36;18.80;99.90
14061;DHT22;7105;43.616;1.434;2022-09-09T05:06:07;18.80;99.90
14061;DHT22;7105;43.616;1.434;2022-09-09T05:08:37;18.80;99.90
14061;DHT22;7105;43.616;1.434;2022-09-09T05:11:14;18.80;99.90
14061;DHT22;7105;43.616;1.434;2022-09-09T05:13:40;18.90;99.90
14061;DHT22;7105;43.616;1.434;2022-09-09T05:16:06;18.90;99.90
14061;DHT22;7105;43.616;1.434;2022-09-09T05:18:32;19.10;99.90
14061;DHT22;7105;43.616;1.434;2022-09-09T05:21:00;19.30;99.90
14061;DHT22;7105;43.616;1.434;2022-09-09T05:23:26;19.30;99.90
14061;DHT22;7105;43.616;1.434;2022-09-09T05:25:56;19.30;99.90
14061;DHT22;7105;43.616;1.434;2022-09-09T05:28:24;19.30;99.90
14061;DHT22;7105;43.616;1.434;2022-09-09T05:31:04;19.50;99.90
14061;DHT22;7105;43.616;1.434;2022-09-09T05:33:31;19.20;99.90
14061;DHT22;7105;43.616;1.434;2022-09-09T05:36:00;19.20;99.90
14061;DHT22;7105;43.616;1.434;2022-09-09T05:38:27;19.20;99.90
14061;DHT22;7105;43.616;1.434;2022-09-09T05:40:53;19.10;99.90
14061;DHT22;7105;43.616;1.434;2022-09-09T05:43:19;19.10;99.90
14061;DHT22;7105;43.616;1.434;2022-09-09T05:45:46;19.20;99.90
14061;DHT22;7105;43.616;1.434;2022-09-09T05:48:13;19.20;99.90
14061;DHT22;7105;43.616;1.434;2022-09-09T05:50:40;19.20;99.90
14061;DHT22;7105;43.616;1.434;2022-09-09T05:53:06;19.10;99.90
14061;DHT22;7105;43.616;1.434;2022-09-09T05:55:32;19.20;99.90
14061;DHT22;7105;43.616;1.434;2022-09-09T05:57:57;19.30;99.90
14061;DHT22;7105;43.616;1.434;2022-09-09T06:00:23;19.20;99.90
14061;DHT22;7105;43.616;1.434;2022-09-09T06:02:52;19.20;99.90
14061;DHT22;7105;43.616;1.434;2022-09-09T06:05:19;19.30;99.90
14061;DHT22;7105;43.616;1.434;2022-09-09T06:07:44;19.20;99.90
14061;DHT22;7105;43.616;1.434;2022-09-09T06:10:11;19.20;99.90
14061;DHT22;7105;43.616;1.434;2022-09-09T06:12:39;19.30;99.90
14061;DHT22;7105;43.616;1.434;2022-09-09T06:15:05;19.30;99.90
14061;DHT22;7105;43.616;1.434;2022-09-09T06:17:31;19.30;99.90
14061;DHT22;7105;43.616;1.434;2022-09-09T06:19:56;19.40;99.90
14061;DHT22;7105;43.616;1.434;2022-09-09T06:22:22;19.30;99.90
14061;DHT22;7105;43.616;1.434;2022-09-09T06:24:48;19.20;99.90
14061;DHT22;7105;43.616;1.434;2022-09-09T06:27:14;19.40;99.90
14061;DHT22;7105;43.616;1.434;2022-09-09T06:29:39;19.60;99.90
14061;DHT22;7105;43.616;1.434;2022-09-09T06:32:05;19.60;99.90
14061;DHT22;7105;43.616;1.434;2022-09-09T06:34:31;19.60;99.90
14061;DHT22;7105;43.616;1.434;2022-09-09T06:36:56;19.70;99.90
14061;DHT22;7105;43.616;1.434;2022-09-09T06:39:23;19.60;99.90
14061;DHT22;7105;43.616;1.434;2022-09-09T06:41:49;19.70;99.90
14061;DHT22;7105;43.616;1.434;2022-09-09T06:44:18;19.80;99.90
14061;DHT22;7105;43.616;1.434;2022-09-09T06:46:44;19.90;99.90
14061;DHT22;7105;43.616;1.434;2022-09-09T06:49:13;20.20;99.90
14061;DHT22;7105;43.616;1.434;2022-09-09T06:51:39;20.20;99.90
14061;DHT22;7105;43.616;1.434;2022-09-09T06:54:10;20.00;99.90
14061;DHT22;7105;43.616;1.434;2022-09-09T06:56:40;19.90;99.90
14061;DHT22;7105;43.616;1.434;2022-09-09T06:59:08;20.10;99.90
14061;DHT22;7105;43.616;1.434;2022-09-09T07:01:39;20.10;99.90
14061;DHT22;7105;43.616;1.434;2022-09-09T07:04:12;20.10;99.90
14061;DHT22;7105;43.616;1.434;2022-09-09T07:06:41;20.00;99.90
14061;DHT22;7105;43.616;1.434;2022-09-09T07:09:12;20.20;99.90
14061;DHT22;7105;43.616;1.434;2022-09-09T07:11:42;20.10;99.90
14061;DHT22;7105;43.616;1.434;2022-09-09T07:14:09;20.10;99.90
14061;DHT22;7105;43.616;1.434;2022-09-09T07:16:38;20.00;99.90
14061;DHT22;7105;43.616;1.434;2022-09-09T07:19:04;20.00;99.90
14061;DHT22;7105;43.616;1.434;2022-09-09T07:21:31;20.00;99.90
14061;DHT22;7105;43.616;1.434;2022-09-09T07:23:58;20.00;99.90
14061;DHT22;7105;43.616;1.434;2022-09-09T07:26:26;20.00;99.90
14061;DHT22;7105;43.616;1.434;2022-09-09T07:28:52;19.90;99.90
14061;DHT22;7105;43.616;1.434;2022-09-09T07:31:21;20.00;99.90
14061;DHT22;7105;43.616;1.434;2022-09-09T07:33:47;20.00;99.90
14061;DHT22;7105;43.616;1.434;2022-09-09T07:38:42;19.90;99.90
14061;DHT22;7105;43.616;1.434;2022-09-09T07:41:16;20.00;99.90
14061;DHT22;7105;43.616;1.434;2022-09-09T07:43:44;20.10;99.90
14061;DHT22;7105;43.616;1.434;2022-09-09T07:46:12;20.20;99.90
14061;DHT22;7105;43.616;1.434;2022-09-09T07:48:39;20.20;99.90
14061;DHT22;7105;43.616;1.434;2022-09-09T07:51:11;20.20;99.90
14061;DHT22;7105;43.616;1.434;2022-09-09T07:53:38;20.10;99.90
14061;DHT22;7105;43.616;1.434;2022-09-09T07:56:10;20.10;99.90
14061;DHT22;7105;43.616;1.434;2022-09-09T07:58:37;20.10;99.90
14061;DHT22;7105;43.616;1.434;2022-09-09T08:01:14;20.10;99.90
14061;DHT22;7105;43.616;1.434;2022-09-09T08:03:41;19.90;99.90
14061;DHT22;7105;43.616;1.434;2022-09-09T08:06:08;20.00;99.90
14061;DHT22;7105;43.616;1.434;2022-09-09T08:08:35;20.10;99.90
14061;DHT22;7105;43.616;1.434;2022-09-09T08:11:05;20.10;99.90
14061;DHT22;7105;43.616;1.434;2022-09-09T08:13:36;20.10;99.90
14061;DHT22;7105;43.616;1.434;2022-09-09T08:16:13;20.10;99.90
14061;DHT22;7105;43.616;1.434;2022-09-09T08:18:39;20.00;99.90
14061;DHT22;7105;43.616;1.434;2022-09-09T08:21:07;20.00;99.90
14061;DHT22;7105;43.616;1.434;2022-09-09T08:23:34;20.00;99.90
14061;DHT22;7105;43.616;1.434;2022-09-09T08:26:15;19.90;99.90
14061;DHT22;7105;43.616;1.434;2022-09-09T08:28:42;20.00;99.90
14061;DHT22;7105;43.616;1.434;2022-09-09T08:31:13;20.10;99.90
14061;DHT22;7105;43.616;1.434;2022-09-09T08:33:40;20.10;99.90
14061;DHT22;7105;43.616;1.434;2022-09-09T08:36:08;20.30;99.90
14061;DHT22;7105;43.616;1.434;2022-09-09T08:38:34;20.30;99.90
14061;DHT22;7105;43.616;1.434;2022-09-09T08:44:07;20.20;99.90
14061;DHT22;7105;43.616;1.434;2022-09-09T08:52:15;19.90;99.90
14061;DHT22;7105;43.616;1.434;2022-09-09T08:54:41;19.80;99.90
14061;DHT22;7105;43.616;1.434;2022-09-09T08:57:14;19.70;99.90
14061;DHT22;7105;43.616;1.434;2022-09-09T08:59:40;19.70;99.90
14061;DHT22;7105;43.616;1.434;2022-09-09T09:05:23;19.30;99.90
14061;DHT22;7105;43.616;1.434;2022-09-09T09:10:57;18.30;99.90
14061;DHT22;7105;43.616;1.434;2022-09-09T09:13:53;17.60;99.90
14061;DHT22;7105;43.616;1.434;2022-09-09T09:16:54;17.80;99.90
14061;DHT22;7105;43.616;1.434;2022-09-09T09:19:22;17.70;99.90
14061;DHT22;7105;43.616;1.434;2022-09-09T09:27:30;17.80;99.90
14061;DHT22;7105;43.616;1.434;2022-09-09T09:29:58;17.90;99.90
14061;DHT22;7105;43.616;1.434;2022-09-09T09:32:27;17.90;99.90
14061;DHT22;7105;43.616;1.434;2022-09-09T09:34:56;17.80;99.90
14061;DHT22;7105;43.616;1.434;2022-09-09T09:37:28;18.00;99.90
14061;DHT22;7105;43.616;1.434;2022-09-09T09:39:55;18.20;99.90
14061;DHT22;7105;43.616;1.434;2022-09-09T09:42:21;17.90;99.90
14061;DHT22;7105;43.616;1.434;2022-09-09T09:44:47;17.70;99.90
14061;DHT22;7105;43.616;1.434;2022-09-09T09:47:18;17.60;99.90
14061;DHT22;7105;43.616;1.434;2022-09-09T09:50:00;17.40;99.90
14061;DHT22;7105;43.616;1.434;2022-09-09T09:52:28;17.60;99.90
14061;DHT22;7105;43.616;1.434;2022-09-09T09:54:57;17.70;99.90
14061;DHT22;7105;43.616;1.434;2022-09-09T09:57:27;17.60;99.90
14061;DHT22;7105;43.616;1.434;2022-09-09T10:00:16;17.70;99.90
14061;DHT22;7105;43.616;1.434;2022-09-09T10:02:46;17.70;99.90
14061;DHT22;7105;43.616;1.434;2022-09-09T10:07:43;17.40;99.90
14061;DHT22;7105;43.616;1.434;2022-09-09T10:10:23;17.60;99.90
14061;DHT22;7105;43.616;1.434;2022-09-09T10:15:28;17.80;99.90
14061;DHT22;7105;43.616;1.434;2022-09-09T10:36:32;17.90;99.90
14061;DHT22;7105;43.616;1.434;2022-09-09T10:39:04;17.70;99.90
14061;DHT22;7105;43.616;1.434;2022-09-09T10:44:34;17.60;99.90
14061;DHT22;7105;43.616;1.434;2022-09-09T10:55:19;18.10;99.90
14061;DHT22;7105;43.616;1.434;2022-09-09T10:57:50;18.30;99.90
14061;DHT22;7105;43.616;1.434;2022-09-09T11:00:23;18.30;99.90
14061;DHT22;7105;43.616;1.434;2022-09-09T11:03:01;18.30;99.90
14061;DHT22;7105;43.616;1.434;2022-09-09T11:06:25;18.30;99.90
14061;DHT22;7105;43.616;1.434;2022-09-09T11:08:36;19.00;99.90
14061;DHT22;7105;43.616;1.434;2022-09-09T11:13:53;19.90;99.90
14061;DHT22;7105;43.616;1.434;2022-09-09T11:21:55;20.40;99.90
14061;DHT22;7105;43.616;1.434;2022-09-09T11:24:31;20.60;99.90
14061;DHT22;7105;43.616;1.434;2022-09-09T11:27:15;20.60;99.90
14061;DHT22;7105;43.616;1.434;2022-09-09T11:38:27;20.20;99.90
14061;DHT22;7105;43.616;1.434;2022-09-09T11:41:04;19.90;99.90
14061;DHT22;7105;43.616;1.434;2022-09-09T11:43:33;20.10;99.90
14061;DHT22;7105;43.616;1.434;2022-09-09T11:46:04;20.10;99.90
14061;DHT22;7105;43.616;1.434;2022-09-09T11:51:09;20.20;99.90
14061;DHT22;7105;43.616;1.434;2022-09-09T11:56:34;20.50;99.90
14061;DHT22;7105;43.616;1.434;2022-09-09T11:59:26;20.40;99.90
14061;DHT22;7105;43.616;1.434;2022-09-09T12:02:03;20.90;99.90
14061;DHT22;7105;43.616;1.434;2022-09-09T12:04:41;21.20;99.90
14061;DHT22;7105;43.616;1.434;2022-09-09T12:09:46;21.00;99.90
14061;DHT22;7105;43.616;1.434;2022-09-09T12:14:44;20.70;99.90
14061;DHT22;7105;43.616;1.434;2022-09-09T12:17:24;21.00;99.90
14061;DHT22;7105;43.616;1.434;2022-09-09T12:20:16;21.00;99.90
14061;DHT22;7105;43.616;1.434;2022-09-09T12:26:28;21.60;99.90
14061;DHT22;7105;43.616;1.434;2022-09-09T12:29:09;21.30;99.90
14061;DHT22;7105;43.616;1.434;2022-09-09T12:37:12;21.70;99.90
14061;DHT22;7105;43.616;1.434;2022-09-09T12:39:47;21.60;99.90
14061;DHT22;7105;43.616;1.434;2022-09-09T12:42:18;21.70;99.90
14061;DHT22;7105;43.616;1.434;2022-09-09T12:44:56;21.80;99.90
14061;DHT22;7105;43.616;1.434;2022-09-09T12:50:03;21.50;99.90
14061;DHT22;7105;43.616;1.434;2022-09-09T12:52:32;22.10;99.90
14061;DHT22;7105;43.616;1.434;2022-09-09T12:55:01;22.10;99.90
14061;DHT22;7105;43.616;1.434;2022-09-09T12:57:35;22.00;99.90
14061;DHT22;7105;43.616;1.434;2022-09-09T13:00:22;22.00;99.90
14061;DHT22;7105;43.616;1.434;2022-09-09T13:05:19;21.80;99.90
14061;DHT22;7105;43.616;1.434;2022-09-09T13:07:46;22.20;99.90
14061;DHT22;7105;43.616;1.434;2022-09-09T13:10:14;22.30;99.90
14061;DHT22;7105;43.616;1.434;2022-09-09T13:12:40;22.30;99.90
14061;DHT22;7105;43.616;1.434;2022-09-09T13:15:20;22.10;99.90
14061;DHT22;7105;43.616;1.434;2022-09-09T13:18:05;22.20;99.90
14061;DHT22;7105;43.616;1.434;2022-09-09T13:20:32;22.20;99.90
14061;DHT22;7105;43.616;1.434;2022-09-09T13:22:57;22.70;99.90
14061;DHT22;7105;43.616;1.434;2022-09-09T13:25:26;22.80;99.90
14061;DHT22;7105;43.616;1.434;2022-09-09T13:28:02;22.50;99.90
14061;DHT22;7105;43.616;1.434;2022-09-09T13:30:31;22.60;99.90
14061;DHT22;7105;43.616;1.434;2022-09-09T13:35:30;23.00;99.90
14061;DHT22;7105;43.616;1.434;2022-09-09T13:37:57;23.00;99.90
14061;DHT22;7105;43.616;1.434;2022-09-09T13:40:24;22.90;99.90
14061;DHT22;7105;43.616;1.434;2022-09-09T13:42:56;22.30;99.90
14061;DHT22;7105;43.616;1.434;2022-09-09T13:45:24;22.60;99.90
14061;DHT22;7105;43.616;1.434;2022-09-09T13:47:53;22.90;99.90
14061;DHT22;7105;43.616;1.434;2022-09-09T13:50:23;23.10;99.90
14061;DHT22;7105;43.616;1.434;2022-09-09T13:52:50;22.80;99.90
14061;DHT22;7105;43.616;1.434;2022-09-09T13:55:20;22.30;99.90
14061;DHT22;7105;43.616;1.434;2022-09-09T13:58:16;22.70;99.90
14061;DHT22;7105;43.616;1.434;2022-09-09T14:00:43;22.50;99.90
14061;DHT22;7105;43.616;1.434;2022-09-09T14:03:10;22.70;99.90
14061;DHT22;7105;43.616;1.434;2022-09-09T14:05:35;22.60;99.90
14061;DHT22;7105;43.616;1.434;2022-09-09T14:08:04;22.80;99.90
14061;DHT22;7105;43.616;1.434;2022-09-09T14:10:30;23.00;99.90
14061;DHT22;7105;43.616;1.434;2022-09-09T14:12:55;23.10;99.90
14061;DHT22;7105;43.616;1.434;2022-09-09T14:15:21;23.10;99.90
14061;DHT22;7105;43.616;1.434;2022-09-09T14:17:47;22.90;99.90
14061;DHT22;7105;43.616;1.434;2022-09-09T14:20:14;22.40;99.90
14061;DHT22;7105;43.616;1.434;2022-09-09T14:22:41;22.60;99.90
14061;DHT22;7105;43.616;1.434;2022-09-09T14:25:07;23.00;99.90
14061;DHT22;7105;43.616;1.434;2022-09-09T14:27:33;23.10;99.90
14061;DHT22;7105;43.616;1.434;2022-09-09T14:29:59;23.10;99.90
14061;DHT22;7105;43.616;1.434;2022-09-09T14:32:26;22.90;99.90
14061;DHT22;7105;43.616;1.434;2022-09-09T14:34:52;22.90;99.90
14061;DHT22;7105;43.616;1.434;2022-09-09T14:37:19;22.80;99.90
14061;DHT22;7105;43.616;1.434;2022-09-09T14:39:46;23.00;99.90
14061;DHT22;7105;43.616;1.434;2022-09-09T14:42:13;23.20;99.90
14061;DHT22;7105;43.616;1.434;2022-09-09T14:44:39;23.30;99.90
14061;DHT22;7105;43.616;1.434;2022-09-09T14:47:06;23.30;99.90
14061;DHT22;7105;43.616;1.434;2022-09-09T14:49:33;23.20;99.90
14061;DHT22;7105;43.616;1.434;2022-09-09T14:51:59;23.30;99.90
14061;DHT22;7105;43.616;1.434;2022-09-09T14:54:25;23.10;99.90
14061;DHT22;7105;43.616;1.434;2022-09-09T14:56:51;23.10;99.90
14061;DHT22;7105;43.616;1.434;2022-09-09T14:59:16;23.30;99.90
14061;DHT22;7105;43.616;1.434;2022-09-09T15:01:42;23.30;99.90
14061;DHT22;7105;43.616;1.434;2022-09-09T15:04:10;23.30;99.90
14061;DHT22;7105;43.616;1.434;2022-09-09T15:06:37;23.20;99.90
14061;DHT22;7105;43.616;1.434;2022-09-09T15:09:04;23.10;99.90
14061;DHT22;7105;43.616;1.434;2022-09-09T15:11:34;22.90;99.90
14061;DHT22;7105;43.616;1.434;2022-09-09T15:14:03;23.10;99.90
14061;DHT22;7105;43.616;1.434;2022-09-09T15:16:29;23.30;99.90
14061;DHT22;7105;43.616;1.434;2022-09-09T15:18:58;23.30;99.90
14061;DHT22;7105;43.616;1.434;2022-09-09T15:21:27;23.00;99.90
14061;DHT22;7105;43.616;1.434;2022-09-09T15:23:53;23.10;99.90
14061;DHT22;7105;43.616;1.434;2022-09-09T15:26:19;23.10;99.90
14061;DHT22;7105;43.616;1.434;2022-09-09T15:28:46;23.20;99.90
14061;DHT22;7105;43.616;1.434;2022-09-09T15:31:17;23.20;99.90
14061;DHT22;7105;43.616;1.434;2022-09-09T15:34:08;23.40;99.90
14061;DHT22;7105;43.616;1.434;2022-09-09T15:36:34;23.40;99.90
14061;DHT22;7105;43.616;1.434;2022-09-09T15:39:00;23.50;99.90
14061;DHT22;7105;43.616;1.434;2022-09-09T15:41:27;23.60;99.90
14061;DHT22;7105;43.616;1.434;2022-09-09T15:43:55;23.50;99.90
14061;DHT22;7105;43.616;1.434;2022-09-09T15:46:30;23.50;99.90
14061;DHT22;7105;43.616;1.434;2022-09-09T15:49:31;23.60;99.90
14061;DHT22;7105;43.616;1.434;2022-09-09T15:51:58;23.70;99.90
14061;DHT22;7105;43.616;1.434;2022-09-09T15:54:25;23.80;99.90
14061;DHT22;7105;43.616;1.434;2022-09-09T15:56:56;23.80;99.90
14061;DHT22;7105;43.616;1.434;2022-09-09T15:59:27;23.80;99.90
14061;DHT22;7105;43.616;1.434;2022-09-09T16:01:56;23.70;99.90
14061;DHT22;7105;43.616;1.434;2022-09-09T16:04:23;23.60;99.90
14061;DHT22;7105;43.616;1.434;2022-09-09T16:06:54;23.70;99.90
14061;DHT22;7105;43.616;1.434;2022-09-09T16:09:21;23.80;99.90
14061;DHT22;7105;43.616;1.434;2022-09-09T16:11:47;23.70;99.90
14061;DHT22;7105;43.616;1.434;2022-09-09T16:14:14;23.70;99.90
14061;DHT22;7105;43.616;1.434;2022-09-09T16:16:41;23.50;99.90
14061;DHT22;7105;43.616;1.434;2022-09-09T16:19:09;23.50;99.90
14061;DHT22;7105;43.616;1.434;2022-09-09T16:21:47;23.70;99.90
14061;DHT22;7105;43.616;1.434;2022-09-09T16:24:16;23.80;99.90
14061;DHT22;7105;43.616;1.434;2022-09-09T16:26:47;23.80;99.90
14061;DHT22;7105;43.616;1.434;2022-09-09T16:29:15;23.90;99.90
14061;DHT22;7105;43.616;1.434;2022-09-09T16:31:43;23.80;99.90
14061;DHT22;7105;43.616;1.434;2022-09-09T16:34:09;23.90;99.90
14061;DHT22;7105;43.616;1.434;2022-09-09T16:36:36;24.00;99.90
14061;DHT22;7105;43.616;1.434;2022-09-09T16:39:06;24.00;99.90
14061;DHT22;7105;43.616;1.434;2022-09-09T16:41:32;23.90;99.90
14061;DHT22;7105;43.616;1.434;2022-09-09T16:44:04;23.90;99.90
14061;DHT22;7105;43.616;1.434;2022-09-09T16:46:32;23.80;99.90
14061;DHT22;7105;43.616;1.434;2022-09-09T16:49:00;23.80;99.90
14061;DHT22;7105;43.616;1.434;2022-09-09T16:51:32;23.90;99.90
14061;DHT22;7105;43.616;1.434;2022-09-09T16:54:00;23.90;99.90
14061;DHT22;7105;43.616;1.434;2022-09-09T16:56:28;24.10;99.90
14061;DHT22;7105;43.616;1.434;2022-09-09T16:59:15;24.00;99.90
14061;DHT22;7105;43.616;1.434;2022-09-09T17:01:42;23.90;99.90
14061;DHT22;7105;43.616;1.434;2022-09-09T17:04:12;23.90;99.90
14061;DHT22;7105;43.616;1.434;2022-09-09T17:06:39;23.80;99.90
14061;DHT22;7105;43.616;1.434;2022-09-09T17:09:08;23.80;99.90
14061;DHT22;7105;43.616;1.434;2022-09-09T17:11:35;23.80;99.90
14061;DHT22;7105;43.616;1.434;2022-09-09T17:14:01;23.80;99.90
14061;DHT22;7105;43.616;1.434;2022-09-09T17:16:29;23.80;99.90
14061;DHT22;7105;43.616;1.434;2022-09-09T17:18:56;23.80;99.90
14061;DHT22;7105;43.616;1.434;2022-09-09T17:21:24;23.70;99.90
14061;DHT22;7105;43.616;1.434;2022-09-09T17:23:51;23.80;99.90
14061;DHT22;7105;43.616;1.434;2022-09-09T17:26:19;23.80;99.90
14061;DHT22;7105;43.616;1.434;2022-09-09T17:28:46;23.90;99.90
14061;DHT22;7105;43.616;1.434;2022-09-09T17:31:14;23.80;99.90
14061;DHT22;7105;43.616;1.434;2022-09-09T17:33:42;23.80;99.90
14061;DHT22;7105;43.616;1.434;2022-09-09T17:38:36;23.50;99.90
14061;DHT22;7105;43.616;1.434;2022-09-09T17:43:35;23.40;99.90
14061;DHT22;7105;43.616;1.434;2022-09-09T17:48:38;23.20;99.90
14061;DHT22;7105;43.616;1.434;2022-09-09T17:51:06;23.20;99.90
14061;DHT22;7105;43.616;1.434;2022-09-09T17:53:42;23.10;99.90
14061;DHT22;7105;43.616;1.434;2022-09-09T17:56:10;23.00;99.90
14061;DHT22;7105;43.616;1.434;2022-09-09T17:58:36;23.00;99.90
14061;DHT22;7105;43.616;1.434;2022-09-09T18:01:08;23.00;99.90
14061;DHT22;7105;43.616;1.434;2022-09-09T18:03:38;22.90;99.90
14061;DHT22;7105;43.616;1.434;2022-09-09T18:06:06;22.80;99.90
14061;DHT22;7105;43.616;1.434;2022-09-09T18:08:33;22.70;99.90
14061;DHT22;7105;43.616;1.434;2022-09-09T18:10:59;22.60;99.90
14061;DHT22;7105;43.616;1.434;2022-09-09T18:13:26;22.50;99.90
14061;DHT22;7105;43.616;1.434;2022-09-09T18:15:52;22.60;99.90
14061;DHT22;7105;43.616;1.434;2022-09-09T18:18:19;22.70;99.90
14061;DHT22;7105;43.616;1.434;2022-09-09T18:20:46;22.60;99.90
14061;DHT22;7105;43.616;1.434;2022-09-09T18:23:20;22.50;99.90